Huvudsida
METAR-TAF:

METAR-TAF

Flygplatser :

Uppsala-Ärna flygplats

Uppsala, Sverige

latitud: 59-53N, longitud: 017-36E, höjd: 21 m

Aktuellt väderrapport

Denna rapport gjordes för 35 minuter sedan, klockan 09:20 UTC
Vind 1 kt varierande vindriktning
Temperatur -5°C
Fuktighet 100%
Tryck 1037 hPa
Sikt: 9000 m

METAR: ESCM 150920Z AUTO VRB01KT 9000 VV003 M05/M05 Q1037

Tid: 10:55 (09:55 UTC)

Väderprognos

Prognos gäller från 14 kl. 09 UTC till 14 kl. 11 UTC
Vind 5 kt från nord
Sikt 10 km eller mer
Spridda moln på en höjd av 1000 ft
Brutna moln på en höjd av 1700 ft
Sannolikhet 30% :
Temporärt
från 14 kl. 09 UTC till 14 kl. 11 UTC
Sikt: 7000 m
Brutna moln på en höjd av 700 ft
lätt snö

TAF: ESCM 1409/1411 36005KT 9999 SCT010 BKN017 PROB30 TEMPO 1409/1411 7000 -SN BKN007 RMK MIL

Aktuella väderrapporter och prognoser från 4000 flygplatser (METAR- och TAF-rapporter).

De tillgängliga stationerna syns som gula och röda prickar på kartan.

För musen över prickarna för att se namnen på stationerna.

Klicka sedan för att få väderrapporter och prognoser.

För att ändra kartan: Klicka på de gröna knapparna med ett svart kors på för att zooma in; den gröna knappen med ett streck på för att zooma ut; eller på de gröna pilarna för angränsande kartor.


METAR-TAF: